Loveland, Oklahoma
Current Conditions -  °F | °C
As of 11:53 PM on Saturday 25 Oct 2014 (Local Time) from KFDR Reporting Station
Clear Clear  
Wind Chill: 67°   Ceiling: Unl
Heat Index: 67°   Visibility: 10mi
Dew Point: 53°   Wind: 6mph
Humidity: 61%   Direction: 190°S
Pressure: 29.98"   Gusts: NA
Location:  34.31°N, 98.77°W
Report Text: KFDR 260453Z AUTO 19005KT 10SM CLR 19/12 A2998 RMK AO2 SLP135 T01940117 $
Loading
Personal Weather Stations






























Interactive Weather Map
Tropical Storm Tracking
New forecast layout! Learn more

10-Day Weather Forecast

Advertisements
Track Severe Weather on mobile